sensor_id;sensor_type;location;lat;lon;timestamp;pressure;altitude;pressure_sealevel;temperature;humidity
46079;BME280;31820;51.880;-0.518;2022-10-31T00:00:05;99720.44;;;17.13;99.21
46079;BME280;31820;51.880;-0.518;2022-10-31T00:02:31;99718.72;;;17.12;98.95
46079;BME280;31820;51.880;-0.518;2022-10-31T00:04:56;99716.00;;;17.12;99.04
46079;BME280;31820;51.880;-0.518;2022-10-31T00:07:22;99723.34;;;17.11;98.94
46079;BME280;31820;51.880;-0.518;2022-10-31T00:09:47;99727.09;;;17.10;98.92
46079;BME280;31820;51.880;-0.518;2022-10-31T00:12:13;99726.25;;;17.10;99.01
46079;BME280;31820;51.880;-0.518;2022-10-31T00:14:38;99728.78;;;17.11;99.02
46079;BME280;31820;51.880;-0.518;2022-10-31T00:17:03;99718.06;;;17.10;99.22
46079;BME280;31820;51.880;-0.518;2022-10-31T00:19:29;99724.34;;;17.10;98.85
46079;BME280;31820;51.880;-0.518;2022-10-31T00:21:54;99727.25;;;17.09;98.92
46079;BME280;31820;51.880;-0.518;2022-10-31T00:24:20;99729.16;;;17.08;99.15
46079;BME280;31820;51.880;-0.518;2022-10-31T00:26:45;99717.38;;;17.08;99.09
46079;BME280;31820;51.880;-0.518;2022-10-31T00:29:11;99728.28;;;17.08;99.08
46079;BME280;31820;51.880;-0.518;2022-10-31T00:31:37;99724.72;;;17.07;99.13
46079;BME280;31820;51.880;-0.518;2022-10-31T00:34:03;99729.16;;;17.08;98.92
46079;BME280;31820;51.880;-0.518;2022-10-31T00:36:28;99715.88;;;17.05;99.16
46079;BME280;31820;51.880;-0.518;2022-10-31T00:38:54;99724.06;;;17.05;99.00
46079;BME280;31820;51.880;-0.518;2022-10-31T00:41:20;99721.50;;;17.04;99.23
46079;BME280;31820;51.880;-0.518;2022-10-31T00:43:45;99726.59;;;17.07;98.94
46079;BME280;31820;51.880;-0.518;2022-10-31T00:46:11;99713.16;;;17.05;99.11
46079;BME280;31820;51.880;-0.518;2022-10-31T00:48:37;99704.97;;;17.05;98.97
46079;BME280;31820;51.880;-0.518;2022-10-31T00:51:04;99710.59;;;17.04;99.16
46079;BME280;31820;51.880;-0.518;2022-10-31T00:53:30;99716.88;;;17.04;99.17
46079;BME280;31820;51.880;-0.518;2022-10-31T00:55:55;99711.44;;;17.04;99.16
46079;BME280;31820;51.880;-0.518;2022-10-31T00:58:21;99706.00;;;17.04;99.33
46079;BME280;31820;51.880;-0.518;2022-10-31T01:00:48;99709.78;;;17.03;99.22
46079;BME280;31820;51.880;-0.518;2022-10-31T01:03:21;99714.34;;;17.03;98.99
46079;BME280;31820;51.880;-0.518;2022-10-31T01:05:56;99711.13;;;16.99;98.86
46079;BME280;31820;51.880;-0.518;2022-10-31T01:08:24;99711.78;;;17.01;99.03
46079;BME280;31820;51.880;-0.518;2022-10-31T01:13:28;99717.25;;;17.01;99.15
46079;BME280;31820;51.880;-0.518;2022-10-31T01:15:59;99705.88;;;16.97;99.26
46079;BME280;31820;51.880;-0.518;2022-10-31T01:18:25;99715.56;;;17.00;98.94
46079;BME280;31820;51.880;-0.518;2022-10-31T01:21:03;99711.97;;;16.99;99.14
46079;BME280;31820;51.880;-0.518;2022-10-31T01:23:29;99710.28;;;16.98;98.98
46079;BME280;31820;51.880;-0.518;2022-10-31T01:28:34;99708.41;;;16.99;99.09
46079;BME280;31820;51.880;-0.518;2022-10-31T01:31:00;99703.97;;;16.98;99.26
46079;BME280;31820;51.880;-0.518;2022-10-31T01:33:26;99713.19;;;16.97;99.13
46079;BME280;31820;51.880;-0.518;2022-10-31T01:35:51;99707.75;;;16.97;99.10
46079;BME280;31820;51.880;-0.518;2022-10-31T01:38:17;99704.31;;;16.95;99.58
46079;BME280;31820;51.880;-0.518;2022-10-31T01:40:42;99715.06;;;16.96;99.25
46079;BME280;31820;51.880;-0.518;2022-10-31T01:43:14;99711.50;;;16.96;99.30
46079;BME280;31820;51.880;-0.518;2022-10-31T01:45:46;99707.06;;;16.95;99.31
46079;BME280;31820;51.880;-0.518;2022-10-31T01:48:15;99710.81;;;16.94;99.35
46079;BME280;31820;51.880;-0.518;2022-10-31T01:50:43;99706.56;;;16.91;99.21
46079;BME280;31820;51.880;-0.518;2022-10-31T01:53:11;99708.09;;;16.94;99.36
46079;BME280;31820;51.880;-0.518;2022-10-31T01:55:40;99706.22;;;16.94;99.34
46079;BME280;31820;51.880;-0.518;2022-10-31T01:58:09;99706.41;;;16.93;99.17
46079;BME280;31820;51.880;-0.518;2022-10-31T02:00:36;99700.09;;;16.92;99.20
46079;BME280;31820;51.880;-0.518;2022-10-31T02:03:02;99707.22;;;16.93;99.25
46079;BME280;31820;51.880;-0.518;2022-10-31T02:05:29;99700.28;;;16.91;98.88
46079;BME280;31820;51.880;-0.518;2022-10-31T02:07:57;99701.97;;;16.92;99.32
46079;BME280;31820;51.880;-0.518;2022-10-31T02:10:24;99706.56;;;16.91;99.23
46079;BME280;31820;51.880;-0.518;2022-10-31T02:12:52;99700.28;;;16.91;99.11
46079;BME280;31820;51.880;-0.518;2022-10-31T02:15:19;99703.00;;;16.91;99.28
46079;BME280;31820;51.880;-0.518;2022-10-31T02:17:44;99710.13;;;16.92;99.31
46079;BME280;31820;51.880;-0.518;2022-10-31T02:20:17;99696.69;;;16.90;99.32
46079;BME280;31820;51.880;-0.518;2022-10-31T02:22:48;99702.13;;;16.90;99.36
46079;BME280;31820;51.880;-0.518;2022-10-31T02:34:25;99685.13;;;16.88;99.26
46079;BME280;31820;51.880;-0.518;2022-10-31T02:36:51;99681.88;;;16.85;99.39
46079;BME280;31820;51.880;-0.518;2022-10-31T02:39:34;99676.13;;;16.88;99.22
46079;BME280;31820;51.880;-0.518;2022-10-31T02:47:24;99677.13;;;16.87;99.22
46079;BME280;31820;51.880;-0.518;2022-10-31T02:50:02;99667.44;;;16.84;99.33
46079;BME280;31820;51.880;-0.518;2022-10-31T02:52:30;99662.81;;;16.85;99.39
46079;BME280;31820;51.880;-0.518;2022-10-31T02:54:56;99659.44;;;16.82;99.39
46079;BME280;31820;51.880;-0.518;2022-10-31T02:57:31;99668.28;;;16.85;99.43
46079;BME280;31820;51.880;-0.518;2022-10-31T03:00:03;99666.38;;;16.85;99.24
46079;BME280;31820;51.880;-0.518;2022-10-31T03:03:00;99673.72;;;16.85;99.24
46079;BME280;31820;51.880;-0.518;2022-10-31T03:08:06;99665.56;;;16.85;99.20
46079;BME280;31820;51.880;-0.518;2022-10-31T03:10:40;99672.00;;;16.83;99.36
46079;BME280;31820;51.880;-0.518;2022-10-31T03:13:13;99669.28;;;16.83;99.44
46079;BME280;31820;51.880;-0.518;2022-10-31T03:15:49;99669.28;;;16.83;99.29
46079;BME280;31820;51.880;-0.518;2022-10-31T03:18:48;99672.88;;;16.84;99.26
46079;BME280;31820;51.880;-0.518;2022-10-31T03:21:29;99661.13;;;16.83;99.13
46079;BME280;31820;51.880;-0.518;2022-10-31T03:23:59;99665.72;;;16.83;99.24
46079;BME280;31820;51.880;-0.518;2022-10-31T03:26:26;99665.72;;;16.83;99.08
46079;BME280;31820;51.880;-0.518;2022-10-31T03:29:03;99669.47;;;16.82;99.01
46079;BME280;31820;51.880;-0.518;2022-10-31T03:31:34;99657.06;;;16.79;99.22
46079;BME280;31820;51.880;-0.518;2022-10-31T03:34:02;99664.00;;;16.82;99.23
46079;BME280;31820;51.880;-0.518;2022-10-31T03:36:30;99653.13;;;16.82;99.19
46079;BME280;31820;51.880;-0.518;2022-10-31T03:39:00;99651.81;;;16.78;99.19
46079;BME280;31820;51.880;-0.518;2022-10-31T03:41:28;99662.34;;;16.81;99.15
46079;BME280;31820;51.880;-0.518;2022-10-31T03:44:08;99659.44;;;16.82;99.09
46079;BME280;31820;51.880;-0.518;2022-10-31T03:46:36;99646.84;;;16.81;99.00
46079;BME280;31820;51.880;-0.518;2022-10-31T03:49:02;99645.13;;;16.80;99.21
46079;BME280;31820;51.880;-0.518;2022-10-31T03:51:39;99652.28;;;16.81;99.14
46079;BME280;31820;51.880;-0.518;2022-10-31T03:57:16;99646.84;;;16.81;99.33
46079;BME280;31820;51.880;-0.518;2022-10-31T03:59:48;99649.75;;;16.80;99.16
46079;BME280;31820;51.880;-0.518;2022-10-31T04:02:20;99655.38;;;16.78;99.02
46079;BME280;31820;51.880;-0.518;2022-10-31T04:04:48;99649.75;;;16.80;98.97
46079;BME280;31820;51.880;-0.518;2022-10-31T04:07:15;99658.25;;;16.77;99.16
46079;BME280;31820;51.880;-0.518;2022-10-31T04:09:44;99654.34;;;16.79;99.12
46079;BME280;31820;51.880;-0.518;2022-10-31T04:12:12;99663.53;;;16.78;99.12
46079;BME280;31820;51.880;-0.518;2022-10-31T04:14:41;99652.63;;;16.78;99.03
46079;BME280;31820;51.880;-0.518;2022-10-31T04:17:12;99651.81;;;16.78;99.08
46079;BME280;31820;51.880;-0.518;2022-10-31T04:19:39;99647.53;;;16.75;99.09
46079;BME280;31820;51.880;-0.518;2022-10-31T04:22:04;99630.00;;;16.78;98.98
46079;BME280;31820;51.880;-0.518;2022-10-31T04:24:30;99640.03;;;16.77;98.93
46079;BME280;31820;51.880;-0.518;2022-10-31T04:26:55;99625.59;;;16.77;99.10
46079;BME280;31820;51.880;-0.518;2022-10-31T04:29:20;99610.09;;;16.77;99.00
46079;BME280;31820;51.880;-0.518;2022-10-31T04:31:46;99606.53;;;16.77;98.90
46079;BME280;31820;51.880;-0.518;2022-10-31T04:34:11;99613.84;;;16.76;98.96
46079;BME280;31820;51.880;-0.518;2022-10-31T04:36:37;99622.03;;;16.76;98.93
46079;BME280;31820;51.880;-0.518;2022-10-31T04:39:02;99611.97;;;16.77;99.01
46079;BME280;31820;51.880;-0.518;2022-10-31T04:41:28;99599.38;;;16.76;99.06
46079;BME280;31820;51.880;-0.518;2022-10-31T04:43:53;99593.91;;;16.76;99.03
46079;BME280;31820;51.880;-0.518;2022-10-31T04:46:19;99604.81;;;16.76;98.93
46079;BME280;31820;51.880;-0.518;2022-10-31T04:48:45;99612.97;;;16.76;98.78
46079;BME280;31820;51.880;-0.518;2022-10-31T04:51:10;99603.97;;;16.75;98.87
46079;BME280;31820;51.880;-0.518;2022-10-31T04:53:36;99601.25;;;16.75;98.85
46079;BME280;31820;51.880;-0.518;2022-10-31T04:56:01;99596.81;;;16.74;98.97
46079;BME280;31820;51.880;-0.518;2022-10-31T04:58:27;99607.72;;;16.74;98.85
46079;BME280;31820;51.880;-0.518;2022-10-31T05:00:53;99597.69;;;16.75;98.87
46079;BME280;31820;51.880;-0.518;2022-10-31T05:03:19;99605.00;;;16.74;98.80
46079;BME280;31820;51.880;-0.518;2022-10-31T05:05:46;99613.16;;;16.74;98.93
46079;BME280;31820;51.880;-0.518;2022-10-31T05:08:12;99607.72;;;16.74;98.80
46079;BME280;31820;51.880;-0.518;2022-10-31T05:10:37;99612.69;;;16.71;98.98
46079;BME280;31820;51.880;-0.518;2022-10-31T05:13:04;99611.47;;;16.73;98.79
46079;BME280;31820;51.880;-0.518;2022-10-31T05:15:30;99613.34;;;16.73;99.17
46079;BME280;31820;51.880;-0.518;2022-10-31T05:17:56;99609.78;;;16.72;98.90
46079;BME280;31820;51.880;-0.518;2022-10-31T05:20:24;99607.91;;;16.73;99.08
46079;BME280;31820;51.880;-0.518;2022-10-31T05:22:52;99602.81;;;16.70;99.06
46079;BME280;31820;51.880;-0.518;2022-10-31T05:25:19;99605.16;;;16.73;98.94
46079;BME280;31820;51.880;-0.518;2022-10-31T05:27:47;99607.06;;;16.72;98.87
46079;BME280;31820;51.880;-0.518;2022-10-31T05:30:15;99611.47;;;16.73;99.06
46079;BME280;31820;51.880;-0.518;2022-10-31T05:32:45;99610.63;;;16.73;98.81
46079;BME280;31820;51.880;-0.518;2022-10-31T05:35:13;99605.34;;;16.71;98.89
46079;BME280;31820;51.880;-0.518;2022-10-31T05:37:39;99593.44;;;16.72;98.91
46079;BME280;31820;51.880;-0.518;2022-10-31T05:40:07;99593.44;;;16.72;98.94
46079;BME280;31820;51.880;-0.518;2022-10-31T05:42:32;99598.88;;;16.72;98.86
46079;BME280;31820;51.880;-0.518;2022-10-31T05:44:58;99596.34;;;16.71;98.80
46079;BME280;31820;51.880;-0.518;2022-10-31T05:47:24;99590.72;;;16.72;98.72
46079;BME280;31820;51.880;-0.518;2022-10-31T05:49:49;99598.88;;;16.72;98.92
46079;BME280;31820;51.880;-0.518;2022-10-31T05:52:15;99590.72;;;16.72;98.75
46079;BME280;31820;51.880;-0.518;2022-10-31T05:54:40;99590.72;;;16.72;98.75
46079;BME280;31820;51.880;-0.518;2022-10-31T05:57:06;99590.06;;;16.70;98.76
46079;BME280;31820;51.880;-0.518;2022-10-31T05:59:31;99583.56;;;16.71;98.68
46079;BME280;31820;51.880;-0.518;2022-10-31T06:01:57;99581.72;;;16.72;98.84
46079;BME280;31820;51.880;-0.518;2022-10-31T06:04:22;99582.72;;;16.71;98.81
46079;BME280;31820;51.880;-0.518;2022-10-31T06:06:48;99587.16;;;16.72;98.72
46079;BME280;31820;51.880;-0.518;2022-10-31T06:09:13;99582.53;;;16.72;98.75
46079;BME280;31820;51.880;-0.518;2022-10-31T06:11:39;99583.56;;;16.71;98.54
46079;BME280;31820;51.880;-0.518;2022-10-31T06:14:05;99580.84;;;16.71;98.64
46079;BME280;31820;51.880;-0.518;2022-10-31T06:16:30;99587.16;;;16.72;98.68
46079;BME280;31820;51.880;-0.518;2022-10-31T06:18:56;99581.03;;;16.70;98.80
46079;BME280;31820;51.880;-0.518;2022-10-31T06:21:22;99575.41;;;16.71;98.67
46079;BME280;31820;51.880;-0.518;2022-10-31T06:23:47;99580.84;;;16.71;98.56
46079;BME280;31820;51.880;-0.518;2022-10-31T06:26:12;99579.16;;;16.70;98.90
46079;BME280;31820;51.880;-0.518;2022-10-31T06:28:38;99582.72;;;16.71;98.61
46079;BME280;31820;51.880;-0.518;2022-10-31T06:31:04;99562.81;;;16.70;98.78
46079;BME280;31820;51.880;-0.518;2022-10-31T06:33:29;99573.72;;;16.70;98.61
46079;BME280;31820;51.880;-0.518;2022-10-31T06:35:55;99569.13;;;16.71;98.60
46079;BME280;31820;51.880;-0.518;2022-10-31T06:38:20;99572.69;;;16.71;98.76
46079;BME280;31820;51.880;-0.518;2022-10-31T06:40:46;99566.38;;;16.71;98.62
46079;BME280;31820;51.880;-0.518;2022-10-31T06:43:11;99561.13;;;16.69;98.63
46079;BME280;31820;51.880;-0.518;2022-10-31T06:45:37;99561.97;;;16.70;98.59
46079;BME280;31820;51.880;-0.518;2022-10-31T06:48:03;99571.84;;;16.71;98.49
46079;BME280;31820;51.880;-0.518;2022-10-31T06:50:28;99557.38;;;16.70;98.51
46079;BME280;31820;51.880;-0.518;2022-10-31T06:52:56;99562.66;;;16.72;98.54
46079;BME280;31820;51.880;-0.518;2022-10-31T06:55:22;99564.50;;;16.71;98.50
46079;BME280;31820;51.880;-0.518;2022-10-31T06:58:00;99561.78;;;16.71;98.44
46079;BME280;31820;51.880;-0.518;2022-10-31T07:00:28;99563.66;;;16.71;98.42
46079;BME280;31820;51.880;-0.518;2022-10-31T07:02:59;99557.75;;;16.67;98.50
46079;BME280;31820;51.880;-0.518;2022-10-31T07:05:25;99560.09;;;16.70;98.42
46079;BME280;31820;51.880;-0.518;2022-10-31T07:07:55;99558.56;;;16.68;98.32
46079;BME280;31820;51.880;-0.518;2022-10-31T07:10:22;99561.78;;;16.71;98.42
46079;BME280;31820;51.880;-0.518;2022-10-31T07:12:48;99559.94;;;16.72;98.36
46079;BME280;31820;51.880;-0.518;2022-10-31T07:15:13;99570.81;;;16.72;98.32
46079;BME280;31820;51.880;-0.518;2022-10-31T07:17:39;99567.22;;;16.71;98.16
46079;BME280;31820;51.880;-0.518;2022-10-31T07:20:05;99567.91;;;16.73;98.08
46079;BME280;31820;51.880;-0.518;2022-10-31T07:22:37;99558.22;;;16.71;98.04
46079;BME280;31820;51.880;-0.518;2022-10-31T07:25:03;99562.47;;;16.73;97.99
46079;BME280;31820;51.880;-0.518;2022-10-31T07:27:35;99569.78;;;16.73;98.14
46079;BME280;31820;51.880;-0.518;2022-10-31T07:30:00;99567.91;;;16.73;97.91
46079;BME280;31820;51.880;-0.518;2022-10-31T07:32:26;99567.06;;;16.73;97.99
46079;BME280;31820;51.880;-0.518;2022-10-31T07:34:51;99573.38;;;16.73;98.08
46079;BME280;31820;51.880;-0.518;2022-10-31T07:37:17;99557.88;;;16.74;97.87
46079;BME280;31820;51.880;-0.518;2022-10-31T07:39:42;99569.59;;;16.74;97.87
46079;BME280;31820;51.880;-0.518;2022-10-31T07:42:08;99565.03;;;16.75;97.92
46079;BME280;31820;51.880;-0.518;2022-10-31T07:44:33;99562.28;;;16.75;97.90
46079;BME280;31820;51.880;-0.518;2022-10-31T07:46:58;99561.44;;;16.74;97.77
46079;BME280;31820;51.880;-0.518;2022-10-31T07:49:24;99561.44;;;16.74;97.67
46079;BME280;31820;51.880;-0.518;2022-10-31T07:51:50;99566.88;;;16.74;97.65
46079;BME280;31820;51.880;-0.518;2022-10-31T07:54:16;99567.56;;;16.76;97.53
46079;BME280;31820;51.880;-0.518;2022-10-31T07:56:41;99558.53;;;16.76;97.72
46079;BME280;31820;51.880;-0.518;2022-10-31T07:59:07;99563.78;;;16.77;97.40
46079;BME280;31820;51.880;-0.518;2022-10-31T08:01:32;99560.06;;;16.78;97.41
46079;BME280;31820;51.880;-0.518;2022-10-31T08:03:58;99554.44;;;16.80;97.34
46079;BME280;31820;51.880;-0.518;2022-10-31T08:06:23;99554.25;;;16.81;97.13
46079;BME280;31820;51.880;-0.518;2022-10-31T08:08:49;99556.97;;;16.81;97.17
46079;BME280;31820;51.880;-0.518;2022-10-31T08:11:14;99554.25;;;16.81;97.08
46079;BME280;31820;51.880;-0.518;2022-10-31T08:13:39;99556.97;;;16.81;97.10
46079;BME280;31820;51.880;-0.518;2022-10-31T08:16:05;99544.06;;;16.75;96.94
46079;BME280;31820;51.880;-0.518;2022-10-31T08:18:32;99554.25;;;16.81;97.05
46079;BME280;31820;51.880;-0.518;2022-10-31T08:20:58;99545.06;;;16.82;96.97
46079;BME280;31820;51.880;-0.518;2022-10-31T08:23:23;99553.88;;;16.85;96.70
46079;BME280;31820;51.880;-0.518;2022-10-31T08:25:49;99543.84;;;16.85;96.96
46079;BME280;31820;51.880;-0.518;2022-10-31T08:28:14;99550.16;;;16.86;96.63
46079;BME280;31820;51.880;-0.518;2022-10-31T08:30:41;99541.63;;;16.89;96.22
46079;BME280;31820;51.880;-0.518;2022-10-31T08:33:15;99542.31;;;16.91;96.24
46079;BME280;31820;51.880;-0.518;2022-10-31T08:35:41;99542.97;;;16.93;96.27
46079;BME280;31820;51.880;-0.518;2022-10-31T08:38:08;99542.78;;;16.94;95.87
46079;BME280;31820;51.880;-0.518;2022-10-31T08:40:34;99534.63;;;16.94;96.01
46079;BME280;31820;51.880;-0.518;2022-10-31T08:43:08;99533.41;;;16.97;95.71
46079;BME280;31820;51.880;-0.518;2022-10-31T08:45:35;99530.69;;;16.97;95.89
46079;BME280;31820;51.880;-0.518;2022-10-31T08:48:03;99527.09;;;16.96;95.42
46079;BME280;31820;51.880;-0.518;2022-10-31T08:50:31;99530.34;;;17.00;95.64
46079;BME280;31820;51.880;-0.518;2022-10-31T08:53:01;99547.50;;;17.00;95.25
46079;BME280;31820;51.880;-0.518;2022-10-31T08:55:26;99538.31;;;17.02;94.96
46079;BME280;31820;51.880;-0.518;2022-10-31T08:57:56;99533.72;;;17.02;95.17
46079;BME280;31820;51.880;-0.518;2022-10-31T09:00:22;99529.97;;;17.03;95.03
46079;BME280;31820;51.880;-0.518;2022-10-31T09:02:47;99531.63;;;17.04;94.97
46079;BME280;31820;51.880;-0.518;2022-10-31T09:05:13;99520.75;;;17.04;94.89
46079;BME280;31820;51.880;-0.518;2022-10-31T09:07:38;99518.69;;;17.06;94.86
46079;BME280;31820;51.880;-0.518;2022-10-31T09:10:04;99520.84;;;17.11;94.58
46079;BME280;31820;51.880;-0.518;2022-10-31T09:12:30;99512.50;;;17.12;94.54
46079;BME280;31820;51.880;-0.518;2022-10-31T09:14:55;99508.75;;;17.13;94.48
46079;BME280;31820;51.880;-0.518;2022-10-31T09:17:20;99506.22;;;17.12;94.26
46079;BME280;31820;51.880;-0.518;2022-10-31T09:19:49;99496.53;;;17.09;94.48
46079;BME280;31820;51.880;-0.518;2022-10-31T09:22:14;99506.41;;;17.10;94.17
46079;BME280;31820;51.880;-0.518;2022-10-31T09:24:40;99507.06;;;17.12;94.35
46079;BME280;31820;51.880;-0.518;2022-10-31T09:27:05;99497.03;;;17.13;94.29
46079;BME280;31820;51.880;-0.518;2022-10-31T09:29:31;99493.44;;;17.12;94.07
46079;BME280;31820;51.880;-0.518;2022-10-31T09:31:56;99489.69;;;17.13;94.01
46079;BME280;31820;51.880;-0.518;2022-10-31T09:34:22;99481.50;;;17.13;94.00
46079;BME280;31820;51.880;-0.518;2022-10-31T09:36:48;99482.34;;;17.14;93.90
46079;BME280;31820;51.880;-0.518;2022-10-31T09:39:13;99473.34;;;17.13;93.77
46079;BME280;31820;51.880;-0.518;2022-10-31T09:42:23;99472.31;;;17.14;94.12
46079;BME280;31820;51.880;-0.518;2022-10-31T09:44:50;99471.25;;;17.15;93.98
46079;BME280;31820;51.880;-0.518;2022-10-31T09:47:35;99472.97;;;17.16;93.75
46079;BME280;31820;51.880;-0.518;2022-10-31T09:50:19;99470.53;;;17.22;93.51
46079;BME280;31820;51.880;-0.518;2022-10-31T09:53:10;99467.16;;;17.20;93.55
46079;BME280;31820;51.880;-0.518;2022-10-31T09:55:43;99464.44;;;17.20;93.49
46079;BME280;31820;51.880;-0.518;2022-10-31T09:58:27;99464.44;;;17.20;93.50
46079;BME280;31820;51.880;-0.518;2022-10-31T10:00:58;99466.78;;;17.23;93.14
46079;BME280;31820;51.880;-0.518;2022-10-31T10:06:11;99468.69;;;17.22;93.27
46079;BME280;31820;51.880;-0.518;2022-10-31T10:08:39;99465.09;;;17.22;93.23
46079;BME280;31820;51.880;-0.518;2022-10-31T10:22:32;99459.94;;;17.27;92.91
46079;BME280;31820;51.880;-0.518;2022-10-31T10:25:09;99463.31;;;17.29;92.61
46079;BME280;31820;51.880;-0.518;2022-10-31T10:30:22;99446.41;;;17.33;92.48
46079;BME280;31820;51.880;-0.518;2022-10-31T10:32:56;99443.19;;;17.30;92.50
46079;BME280;31820;51.880;-0.518;2022-10-31T10:35:33;99442.53;;;17.28;92.85
46079;BME280;31820;51.880;-0.518;2022-10-31T10:38:10;99449.50;;;17.30;92.88
46079;BME280;31820;51.880;-0.518;2022-10-31T10:40:36;99441.16;;;17.32;92.31
46079;BME280;31820;51.880;-0.518;2022-10-31T10:59:43;99425.25;;;17.35;92.16
46079;BME280;31820;51.880;-0.518;2022-10-31T11:02:21;99417.28;;;17.34;92.43
46079;BME280;31820;51.880;-0.518;2022-10-31T11:04:50;99405.91;;;17.30;92.47
46079;BME280;31820;51.880;-0.518;2022-10-31T11:07:16;99414.19;;;17.37;92.46
46079;BME280;31820;51.880;-0.518;2022-10-31T11:09:42;99403.84;;;17.32;92.40
46079;BME280;31820;51.880;-0.518;2022-10-31T11:12:10;99407.22;;;17.34;92.22
46079;BME280;31820;51.880;-0.518;2022-10-31T11:14:53;99400.09;;;17.33;92.55
46079;BME280;31820;51.880;-0.518;2022-10-31T11:17:33;99395.94;;;17.38;92.12
46079;BME280;31820;51.880;-0.518;2022-10-31T11:20:24;99389.19;;;17.33;92.67
46079;BME280;31820;51.880;-0.518;2022-10-31T11:23:01;99390.84;;;17.34;92.53
46079;BME280;31820;51.880;-0.518;2022-10-31T11:25:27;99384.75;;;17.32;92.49
46079;BME280;31820;51.880;-0.518;2022-10-31T11:28:00;99375.75;;;17.32;92.66
46079;BME280;31820;51.880;-0.518;2022-10-31T11:30:27;99376.13;;;17.29;92.57
46079;BME280;31820;51.880;-0.518;2022-10-31T11:32:53;99368.97;;;17.28;92.70
46079;BME280;31820;51.880;-0.518;2022-10-31T11:35:20;99383.91;;;17.32;92.51
46079;BME280;31820;51.880;-0.518;2022-10-31T11:37:48;99373.03;;;17.32;92.55
46079;BME280;31820;51.880;-0.518;2022-10-31T11:40:18;99360.41;;;17.31;92.45
46079;BME280;31820;51.880;-0.518;2022-10-31T11:42:45;99363.97;;;17.31;92.43
46079;BME280;31820;51.880;-0.518;2022-10-31T11:45:16;99355.63;;;17.33;92.61
46079;BME280;31820;51.880;-0.518;2022-10-31T11:47:53;99349.78;;;17.36;92.24
46079;BME280;31820;51.880;-0.518;2022-10-31T11:50:24;99339.06;;;17.34;92.38
46079;BME280;31820;51.880;-0.518;2022-10-31T11:52:52;99348.94;;;17.35;92.22
46079;BME280;31820;51.880;-0.518;2022-10-31T11:55:38;99339.75;;;17.36;92.31
46079;BME280;31820;51.880;-0.518;2022-10-31T11:58:23;99337.22;;;17.35;92.46
46079;BME280;31820;51.880;-0.518;2022-10-31T12:00:52;99327.34;;;17.34;92.04
46079;BME280;31820;51.880;-0.518;2022-10-31T12:08:40;99313.72;;;17.34;92.46
46079;BME280;31820;51.880;-0.518;2022-10-31T12:11:21;99304.69;;;17.33;92.46
46079;BME280;31820;51.880;-0.518;2022-10-31T12:18:58;99299.06;;;17.35;92.40
46079;BME280;31820;51.880;-0.518;2022-10-31T12:21:50;99298.00;;;17.36;92.19
46079;BME280;31820;51.880;-0.518;2022-10-31T12:27:02;99302.44;;;17.37;92.13
46079;BME280;31820;51.880;-0.518;2022-10-31T12:29:36;99279.78;;;17.36;92.00
46079;BME280;31820;51.880;-0.518;2022-10-31T12:34:59;99271.44;;;17.38;92.20
46079;BME280;31820;51.880;-0.518;2022-10-31T12:40:15;99254.69;;;17.41;91.93
46079;BME280;31820;51.880;-0.518;2022-10-31T12:45:39;99243.03;;;17.47;91.26
46079;BME280;31820;51.880;-0.518;2022-10-31T12:48:36;99234.44;;;17.50;91.31
46079;BME280;31820;51.880;-0.518;2022-10-31T12:57:01;99216.16;;;17.44;91.13
46079;BME280;31820;51.880;-0.518;2022-10-31T12:59:39;99219.53;;;17.46;91.37
46079;BME280;31820;51.880;-0.518;2022-10-31T13:07:46;99174.59;;;17.42;91.56
46079;BME280;31820;51.880;-0.518;2022-10-31T13:10:30;99182.56;;;17.44;91.68
46079;BME280;31820;51.880;-0.518;2022-10-31T13:13:02;99177.13;;;17.44;91.53
46079;BME280;31820;51.880;-0.518;2022-10-31T13:15:38;99175.53;;;17.49;91.33
46079;BME280;31820;51.880;-0.518;2022-10-31T13:18:16;99166.97;;;17.52;91.06
46079;BME280;31820;51.880;-0.518;2022-10-31T13:20:46;99162.91;;;17.48;91.27
46079;BME280;31820;51.880;-0.518;2022-10-31T13:25:56;99151.38;;;17.46;91.55
46079;BME280;31820;51.880;-0.518;2022-10-31T13:28:29;99140.59;;;17.38;91.49
46079;BME280;31820;51.880;-0.518;2022-10-31T13:30:55;99140.22;;;17.41;91.73
46079;BME280;31820;51.880;-0.518;2022-10-31T13:44:20;99099.72;;;17.38;91.99
46079;BME280;31820;51.880;-0.518;2022-10-31T13:46:49;99084.41;;;17.37;91.98
46079;BME280;31820;51.880;-0.518;2022-10-31T13:54:45;99070.78;;;17.37;92.03
46079;BME280;31820;51.880;-0.518;2022-10-31T13:59:51;99061.56;;;17.38;91.94
46079;BME280;31820;51.880;-0.518;2022-10-31T14:02:26;99064.28;;;17.38;91.97
46079;BME280;31820;51.880;-0.518;2022-10-31T14:04:58;99048.78;;;17.39;91.83
46079;BME280;31820;51.880;-0.518;2022-10-31T14:07:26;99052.34;;;17.39;91.85
46079;BME280;31820;51.880;-0.518;2022-10-31T14:09:57;99040.41;;;17.40;91.65
46079;BME280;31820;51.880;-0.518;2022-10-31T14:12:48;99034.94;;;17.40;91.96
46079;BME280;31820;51.880;-0.518;2022-10-31T14:15:25;99029.50;;;17.40;91.91
46079;BME280;31820;51.880;-0.518;2022-10-31T14:18:02;99023.22;;;17.40;91.77
46079;BME280;31820;51.880;-0.518;2022-10-31T14:20:43;99018.59;;;17.40;91.87
46079;BME280;31820;51.880;-0.518;2022-10-31T14:29:01;99002.25;;;17.40;91.66
46079;BME280;31820;51.880;-0.518;2022-10-31T14:36:33;98983.38;;;17.39;91.84
46079;BME280;31820;51.880;-0.518;2022-10-31T14:39:18;98975.00;;;17.40;91.99
46079;BME280;31820;51.880;-0.518;2022-10-31T14:44:52;98969.53;;;17.40;91.90
46079;BME280;31820;51.880;-0.518;2022-10-31T14:52:49;98962.41;;;17.39;91.79
46079;BME280;31820;51.880;-0.518;2022-10-31T14:55:15;98959.66;;;17.39;91.77
46079;BME280;31820;51.880;-0.518;2022-10-31T14:57:49;98961.75;;;17.37;91.77
46079;BME280;31820;51.880;-0.518;2022-10-31T15:00:19;98955.69;;;17.35;92.11
46079;BME280;31820;51.880;-0.518;2022-10-31T15:05:17;98948.09;;;17.30;92.27
46079;BME280;31820;51.880;-0.518;2022-10-31T15:07:54;98942.66;;;17.30;92.91
46079;BME280;31820;51.880;-0.518;2022-10-31T15:12:49;98919.34;;;17.28;92.66
46079;BME280;31820;51.880;-0.518;2022-10-31T15:15:22;98916.63;;;17.28;92.58
46079;BME280;31820;51.880;-0.518;2022-10-31T15:17:55;98906.78;;;17.27;92.68